createdAt,value
2018-08-18T00:01:03.048Z,14.85
2018-08-18T00:03:38.522Z,12.88
2018-08-18T00:06:14.105Z,31.68
2018-08-18T00:08:49.589Z,13.22
2018-08-18T00:11:25.114Z,21.93
2018-08-18T00:14:00.488Z,19.65
2018-08-18T00:16:36.494Z,13.32
2018-08-18T00:19:12.252Z,19.37
2018-08-18T00:21:47.801Z,15.75
2018-08-18T00:24:23.196Z,14.03
2018-08-18T00:26:58.689Z,18.17
2018-08-18T00:29:33.885Z,12.90
2018-08-18T00:32:09.397Z,12.88
2018-08-18T00:34:49.881Z,17.00
2018-08-18T00:37:26.109Z,16.73
2018-08-18T00:40:01.602Z,12.35
2018-08-18T00:42:37.273Z,10.75
2018-08-18T00:45:13.799Z,14.50
2018-08-18T00:47:49.620Z,12.58
2018-08-18T00:50:43.265Z,8.98
2018-08-18T00:53:18.840Z,11.83
2018-08-18T00:55:54.249Z,14.80
2018-08-18T00:58:30.753Z,14.68
2018-08-18T01:01:06.485Z,14.25
2018-08-18T01:03:47.381Z,14.95
2018-08-18T01:06:31.508Z,15.68
2018-08-18T01:09:10.708Z,15.40
2018-08-18T01:11:46.313Z,22.93
2018-08-18T01:14:22.098Z,12.98
2018-08-18T01:16:57.436Z,15.90
2018-08-18T01:19:32.877Z,21.45
2018-08-18T01:22:10.171Z,21.77
2018-08-18T01:24:45.688Z,15.18
2018-08-18T01:27:21.207Z,17.60
2018-08-18T01:30:00.724Z,17.62
2018-08-18T01:32:36.068Z,17.37
2018-08-18T01:35:12.072Z,16.52
2018-08-18T01:37:47.869Z,12.65
2018-08-18T01:40:23.193Z,20.37
2018-08-18T01:42:58.545Z,16.57
2018-08-18T01:45:33.970Z,12.68
2018-08-18T01:48:09.548Z,16.15
2018-08-18T01:50:45.365Z,19.87
2018-08-18T01:53:20.849Z,15.20
2018-08-18T01:55:56.358Z,15.68
2018-08-18T01:58:31.625Z,15.68
2018-08-18T02:01:07.452Z,21.82
2018-08-18T02:03:49.485Z,22.82
2018-08-18T02:06:24.933Z,19.82
2018-08-18T02:09:00.454Z,18.27
2018-08-18T02:11:36.505Z,14.93
2018-08-18T02:14:20.498Z,20.62
2018-08-18T02:17:13.096Z,18.62
2018-08-18T02:19:49.066Z,20.68
2018-08-18T02:22:25.220Z,16.30
2018-08-18T02:25:00.582Z,21.93
2018-08-18T02:27:35.933Z,17.52
2018-08-18T02:30:19.630Z,19.85
2018-08-18T02:32:54.987Z,24.10
2018-08-18T02:35:30.477Z,22.00
2018-08-18T02:38:06.002Z,22.70
2018-08-18T02:40:41.332Z,22.73
2018-08-18T02:43:24.105Z,21.93
2018-08-18T02:46:09.689Z,22.80
2018-08-18T02:48:44.968Z,17.50
2018-08-18T02:51:20.583Z,23.30
2018-08-18T02:53:55.957Z,17.75
2018-08-18T02:56:36.330Z,24.82
2018-08-18T02:59:12.893Z,27.40
2018-08-18T03:01:48.065Z,19.15
2018-08-18T03:04:23.565Z,27.15
2018-08-18T03:06:59.060Z,21.42
2018-08-18T03:09:34.461Z,21.27
2018-08-18T03:12:10.432Z,29.95
2018-08-18T03:14:46.172Z,19.62
2018-08-18T03:17:21.643Z,15.88
2018-08-18T03:19:57.261Z,19.23
2018-08-18T03:22:46.954Z,21.20
2018-08-18T03:25:27.816Z,28.75
2018-08-18T03:28:03.140Z,28.35
2018-08-18T03:30:38.805Z,19.75
2018-08-18T03:33:13.964Z,23.42
2018-08-18T03:35:49.598Z,22.05
2018-08-18T03:38:24.969Z,17.60
2018-08-18T03:41:00.588Z,17.52
2018-08-18T03:43:35.889Z,20.88
2018-08-18T03:46:11.537Z,28.47
2018-08-18T03:48:47.322Z,25.08
2018-08-18T03:51:31.569Z,24.15
2018-08-18T03:54:06.856Z,22.55
2018-08-18T03:56:42.681Z,26.35
2018-08-18T03:59:18.126Z,28.45
2018-08-18T04:01:55.865Z,19.67
2018-08-18T04:04:35.558Z,25.80
2018-08-18T04:07:10.932Z,26.82
2018-08-18T04:09:46.169Z,29.35
2018-08-18T04:12:21.600Z,24.02
2018-08-18T04:14:57.072Z,30.88
2018-08-18T04:17:32.698Z,22.93
2018-08-18T04:20:07.913Z,21.55
2018-08-18T04:22:43.798Z,18.87
2018-08-18T04:25:19.079Z,23.87
2018-08-18T04:27:54.605Z,24.72
2018-08-18T04:30:30.085Z,24.72
2018-08-18T04:33:05.508Z,21.57
2018-08-18T04:35:42.002Z,23.30
2018-08-18T04:38:17.490Z,22.87
2018-08-18T04:40:52.961Z,23.52
2018-08-18T04:43:28.480Z,20.52
2018-08-18T04:46:03.850Z,19.25
2018-08-18T04:48:39.572Z,27.15
2018-08-18T04:51:15.505Z,26.37
2018-08-18T04:53:50.981Z,18.65
2018-08-18T04:56:26.276Z,23.35
2018-08-18T04:59:01.661Z,19.00
2018-08-18T05:01:36.958Z,24.25
2018-08-18T05:04:13.072Z,21.42
2018-08-18T05:06:48.381Z,20.72
2018-08-18T05:09:30.509Z,17.73
2018-08-18T05:12:05.808Z,19.70
2018-08-18T05:14:41.393Z,22.30
2018-08-18T05:17:16.599Z,20.97
2018-08-18T05:20:24.745Z,20.88
2018-08-18T05:23:19.044Z,16.90
2018-08-18T05:25:54.593Z,15.23
2018-08-18T05:28:30.570Z,22.87
2018-08-18T05:31:06.192Z,13.18
2018-08-18T05:33:41.389Z,18.52
2018-08-18T05:36:16.980Z,13.67
2018-08-18T05:38:52.418Z,21.20
2018-08-18T05:41:27.976Z,22.57
2018-08-18T05:44:03.153Z,19.90
2018-08-18T05:46:38.756Z,11.73
2018-08-18T05:49:16.029Z,17.60
2018-08-18T05:51:51.905Z,20.70
2018-08-18T05:54:28.136Z,15.50
2018-08-18T05:57:03.401Z,12.30
2018-08-18T05:59:38.803Z,15.70
2018-08-18T06:02:14.302Z,11.37
2018-08-18T06:04:49.685Z,12.90
2018-08-18T06:07:25.196Z,16.33
2018-08-18T06:10:00.624Z,16.27
2018-08-18T06:12:36.162Z,13.10
2018-08-18T06:15:11.653Z,12.27
2018-08-18T06:17:47.033Z,15.50
2018-08-18T06:20:22.504Z,14.73
2018-08-18T06:22:58.066Z,17.30
2018-08-18T06:25:33.673Z,19.00
2018-08-18T06:28:09.267Z,11.80
2018-08-18T06:30:44.805Z,10.93
2018-08-18T06:33:20.461Z,9.07
2018-08-18T06:35:55.941Z,9.40
2018-08-18T06:38:31.513Z,7.97
2018-08-18T06:41:07.550Z,9.83
2018-08-18T06:43:43.063Z,11.80
2018-08-18T06:46:18.393Z,8.70
2018-08-18T06:48:54.149Z,8.00
2018-08-18T06:51:29.783Z,5.43
2018-08-18T06:54:05.448Z,10.80
2018-08-18T06:56:40.724Z,7.27
2018-08-18T06:59:16.550Z,12.40
2018-08-18T07:01:51.804Z,9.77
2018-08-18T07:04:27.523Z,8.77
2018-08-18T07:07:03.332Z,5.80
2018-08-18T07:09:38.941Z,7.47
2018-08-18T07:12:14.417Z,4.40
2018-08-18T07:14:49.746Z,9.80
2018-08-18T07:20:00.219Z,9.40
2018-08-18T07:22:35.609Z,5.80
2018-08-18T07:25:11.105Z,6.70
2018-08-18T07:58:55.262Z,15.10
2018-08-18T08:01:30.715Z,10.10
2018-08-18T08:04:05.941Z,11.03
2018-08-18T08:27:23.020Z,13.90
2018-08-18T08:29:58.503Z,7.10
2018-08-18T08:32:33.934Z,12.83
2018-08-18T08:35:10.778Z,18.57
2018-08-18T08:37:46.949Z,14.13
2018-08-18T08:40:23.419Z,12.57
2018-08-18T08:42:58.833Z,12.93
2018-08-18T08:45:34.061Z,14.13
2018-08-18T08:48:10.370Z,13.73
2018-08-18T08:50:45.680Z,7.70
2018-08-18T08:53:21.768Z,11.50
2018-08-18T08:55:56.924Z,11.97
2018-08-18T08:58:32.528Z,8.60
2018-08-18T09:01:07.874Z,13.77
2018-08-18T09:03:43.545Z,9.97
2018-08-18T09:06:18.896Z,11.30
2018-08-18T09:08:58.812Z,9.33
2018-08-18T09:11:34.174Z,11.13
2018-08-18T09:14:09.733Z,12.40
2018-08-18T09:16:45.475Z,9.23
2018-08-18T09:19:21.728Z,8.57
2018-08-18T09:21:59.627Z,11.53
2018-08-18T09:24:35.022Z,13.60
2018-08-18T09:27:10.546Z,10.93
2018-08-18T09:29:52.540Z,6.43
2018-08-18T09:32:28.155Z,13.30
2018-08-18T09:35:03.640Z,8.30
2018-08-18T09:37:39.166Z,8.73
2018-08-18T09:40:14.828Z,18.37
2018-08-18T09:42:50.297Z,11.80
2018-08-18T09:45:25.873Z,24.57
2018-08-18T09:48:01.316Z,12.70
2018-08-18T09:50:36.742Z,10.50
2018-08-18T09:53:15.113Z,8.23
2018-08-18T09:55:50.985Z,8.20
2018-08-18T09:58:27.301Z,9.07
2018-08-18T10:01:02.900Z,14.10
2018-08-18T10:03:38.569Z,8.80
2018-08-18T10:06:14.204Z,12.07
2018-08-18T10:08:49.702Z,8.00
2018-08-18T10:11:25.296Z,9.90
2018-08-18T10:14:00.803Z,7.30
2018-08-18T10:16:36.938Z,5.93
2018-08-18T10:19:12.281Z,13.83
2018-08-18T10:21:48.001Z,6.03
2018-08-18T10:24:23.262Z,9.37
2018-08-18T10:27:04.939Z,5.50
2018-08-18T10:29:40.175Z,8.30
2018-08-18T10:32:15.832Z,6.00
2018-08-18T10:34:51.338Z,15.33
2018-08-18T10:37:26.939Z,27.53
2018-08-18T10:40:08.503Z,5.10
2018-08-18T10:42:43.958Z,6.37
2018-08-18T10:45:19.494Z,5.47
2018-08-18T10:47:55.048Z,5.70
2018-08-18T10:51:46.562Z,16.47
2018-08-18T10:54:22.118Z,4.70
2018-08-18T10:56:57.587Z,6.90
2018-08-18T10:59:49.617Z,14.50
2018-08-18T11:02:33.620Z,7.93
2018-08-18T11:05:09.605Z,15.57
2018-08-18T11:07:54.157Z,10.80
2018-08-18T11:10:31.433Z,18.10
2018-08-18T11:13:06.892Z,7.30
2018-08-18T11:15:44.068Z,10.30
2018-08-18T11:18:19.736Z,5.67
2018-08-18T11:20:55.692Z,10.00
2018-08-18T11:23:31.446Z,10.37
2018-08-18T11:26:06.870Z,11.70
2018-08-18T11:28:42.563Z,11.43
2018-08-18T11:31:17.792Z,8.23
2018-08-18T11:33:53.548Z,9.50
2018-08-18T11:36:28.771Z,8.40
2018-08-18T11:39:06.881Z,4.83
2018-08-18T11:41:42.481Z,16.40
2018-08-18T11:44:17.876Z,10.70
2018-08-18T11:46:53.242Z,9.90
2018-08-18T11:49:28.761Z,12.63
2018-08-18T11:52:04.429Z,8.33
2018-08-18T11:54:39.961Z,9.90
2018-08-18T11:57:18.316Z,9.33
2018-08-18T11:59:53.846Z,10.03
2018-08-18T12:02:29.305Z,4.37
2018-08-18T12:05:04.917Z,5.80
2018-08-18T12:07:40.217Z,9.80
2018-08-18T12:10:15.950Z,5.47
2018-08-18T12:12:51.484Z,7.70
2018-08-18T12:15:27.019Z,8.40
2018-08-18T12:18:02.482Z,4.90
2018-08-18T12:20:37.929Z,5.40
2018-08-18T12:23:13.372Z,4.63
2018-08-18T12:25:52.900Z,5.37
2018-08-18T12:28:46.982Z,11.43
2018-08-18T12:31:24.641Z,5.20
2018-08-18T12:34:00.313Z,7.93
2018-08-18T12:36:36.782Z,5.90
2018-08-18T12:39:12.330Z,10.53
2018-08-18T12:41:47.528Z,4.50
2018-08-18T12:44:27.529Z,7.93
2018-08-18T12:47:03.904Z,10.00
2018-08-18T12:49:39.508Z,4.73
2018-08-18T12:52:15.184Z,9.10
2018-08-18T12:54:50.633Z,6.80
2018-08-18T12:57:39.700Z,9.83
2018-08-18T13:00:15.485Z,6.77
2018-08-18T13:02:54.685Z,8.27
2018-08-18T13:05:30.334Z,5.63
2018-08-18T13:08:05.853Z,5.13
2018-08-18T13:10:41.277Z,5.53
2018-08-18T13:13:16.737Z,10.03
2018-08-18T13:15:53.817Z,8.93
2018-08-18T13:18:29.170Z,2.17
2018-08-18T13:21:04.644Z,5.50
2018-08-18T13:23:39.960Z,4.13
2018-08-18T13:26:15.531Z,4.40
2018-08-18T13:28:53.109Z,4.50
2018-08-18T13:31:37.680Z,13.37
2018-08-18T13:34:14.491Z,6.70
2018-08-18T13:36:49.909Z,5.43
2018-08-18T13:39:25.444Z,5.37
2018-08-18T13:42:19.439Z,14.43
2018-08-18T13:44:54.901Z,12.67
2018-08-18T13:47:30.525Z,10.00
2018-08-18T13:50:09.462Z,15.70
2018-08-18T13:52:49.152Z,9.93
2018-08-18T13:55:41.925Z,9.60
2018-08-18T13:58:17.396Z,8.13
2018-08-18T14:00:52.630Z,9.57
2018-08-18T14:03:29.400Z,5.83
2018-08-18T14:06:04.684Z,7.80
2018-08-18T14:08:40.154Z,5.40
2018-08-18T14:11:15.698Z,4.60
2018-08-18T14:13:51.300Z,8.40
2018-08-18T14:16:26.617Z,4.83
2018-08-18T14:19:02.197Z,6.10
2018-08-18T14:21:37.458Z,5.53
2018-08-18T14:24:13.485Z,3.53
2018-08-18T14:26:52.872Z,10.17
2018-08-18T14:29:29.336Z,8.23
2018-08-18T14:32:08.848Z,6.80
2018-08-18T14:34:51.459Z,7.37
2018-08-18T14:37:26.777Z,7.13
2018-08-18T14:40:02.341Z,5.93
2018-08-18T14:42:37.524Z,8.07
2018-08-18T14:45:16.185Z,9.23
2018-08-18T14:47:51.703Z,6.37
2018-08-18T14:50:29.762Z,6.20
2018-08-18T14:53:10.720Z,5.00
2018-08-18T14:55:46.377Z,22.97
2018-08-18T14:58:27.893Z,4.63
2018-08-18T15:01:08.733Z,10.47
2018-08-18T15:03:44.098Z,7.47
2018-08-18T15:06:19.834Z,13.10
2018-08-18T15:08:55.145Z,5.90
2018-08-18T15:11:30.637Z,13.20
2018-08-18T15:14:06.120Z,10.70
2018-08-18T15:16:41.715Z,8.67
2018-08-18T15:19:17.001Z,9.27
2018-08-18T15:21:53.848Z,5.80
2018-08-18T15:24:29.195Z,9.40
2018-08-18T15:27:04.615Z,6.10
2018-08-18T15:29:40.161Z,8.80
2018-08-18T15:32:15.922Z,8.93
2018-08-18T15:34:51.301Z,4.70
2018-08-18T15:37:26.835Z,7.03
2018-08-18T15:40:02.317Z,11.20
2018-08-18T15:42:37.921Z,11.67
2018-08-18T15:45:13.221Z,15.57
2018-08-18T15:47:48.897Z,8.43
2018-08-18T15:50:25.153Z,10.03
2018-08-18T15:53:00.734Z,7.97
2018-08-18T15:55:36.146Z,12.20
2018-08-18T15:58:11.909Z,13.23
2018-08-18T16:00:47.205Z,5.57
2018-08-18T16:03:22.898Z,7.53
2018-08-18T16:05:58.272Z,14.80
2018-08-18T16:08:33.737Z,7.23
2018-08-18T16:11:09.122Z,9.03
2018-08-18T16:13:45.050Z,8.27
2018-08-18T16:16:20.467Z,10.30
2018-08-18T16:19:03.256Z,7.10
2018-08-18T16:21:38.534Z,10.93
2018-08-18T16:24:30.950Z,10.93
2018-08-18T16:27:07.073Z,11.10
2018-08-18T16:29:42.757Z,7.40
2018-08-18T16:32:22.137Z,7.97
2018-08-18T16:35:02.653Z,9.17
2018-08-18T16:37:40.530Z,14.00
2018-08-18T16:40:16.214Z,14.27
2018-08-18T16:42:51.801Z,11.10
2018-08-18T16:45:27.142Z,7.53
2018-08-18T16:48:04.413Z,7.83
2018-08-18T16:50:40.747Z,8.50
2018-08-18T16:53:16.210Z,10.13
2018-08-18T16:55:51.641Z,18.73
2018-08-18T16:58:27.081Z,7.63
2018-08-18T17:01:02.618Z,11.40
2018-08-18T17:03:38.166Z,11.27
2018-08-18T17:06:13.833Z,12.20
2018-08-18T17:08:49.180Z,6.97
2018-08-18T17:11:24.721Z,9.50
2018-08-18T17:14:00.501Z,7.60
2018-08-18T17:16:36.159Z,8.50
2018-08-18T17:19:11.437Z,5.80
2018-08-18T17:21:47.010Z,7.00
2018-08-18T17:24:22.469Z,10.80
2018-08-18T17:26:58.546Z,19.10
2018-08-18T17:29:37.932Z,13.33
2018-08-18T17:32:13.497Z,9.43
2018-08-18T17:34:48.725Z,9.77
2018-08-18T17:37:24.288Z,5.00
2018-08-18T17:39:59.855Z,11.20
2018-08-18T17:42:35.488Z,11.60
2018-08-18T17:45:11.014Z,7.90
2018-08-18T17:47:50.677Z,5.27
2018-08-18T17:50:25.946Z,20.83
2018-08-18T17:53:01.788Z,7.50
2018-08-18T17:55:37.184Z,17.30
2018-08-18T17:58:12.766Z,7.30
2018-08-18T18:00:48.546Z,8.97
2018-08-18T18:03:31.040Z,7.70
2018-08-18T18:06:06.905Z,4.90
2018-08-18T18:08:42.437Z,9.57
2018-08-18T18:11:17.737Z,6.27
2018-08-18T18:13:53.425Z,9.23
2018-08-18T18:16:28.981Z,10.53
2018-08-18T18:19:04.732Z,5.70
2018-08-18T18:21:42.555Z,5.47
2018-08-18T18:24:34.105Z,11.60
2018-08-18T18:27:09.298Z,8.20
2018-08-18T18:29:45.461Z,5.23
2018-08-18T18:32:20.841Z,6.63
2018-08-18T18:34:56.565Z,11.80
2018-08-18T18:37:31.888Z,7.00
2018-08-18T18:40:11.517Z,7.67
2018-08-18T18:42:46.796Z,11.10
2018-08-18T18:45:24.989Z,21.40
2018-08-18T18:48:00.278Z,6.53
2018-08-18T18:50:35.878Z,11.00
2018-08-18T18:53:11.377Z,5.47
2018-08-18T18:55:54.748Z,11.17
2018-08-18T18:58:30.102Z,7.43
2018-08-18T19:01:05.686Z,13.00
2018-08-18T19:03:41.106Z,6.50
2018-08-18T19:06:16.557Z,8.30
2018-08-18T19:09:00.993Z,11.40
2018-08-18T19:11:36.432Z,6.77
2018-08-18T19:14:11.873Z,6.90
2018-08-18T19:16:47.741Z,16.53
2018-08-18T19:19:23.033Z,20.40
2018-08-18T19:21:58.530Z,12.20
2018-08-18T19:24:34.054Z,14.60
2018-08-18T19:27:09.533Z,15.93
2018-08-18T19:29:44.980Z,19.93
2018-08-18T19:32:20.755Z,25.73
2018-08-18T19:34:56.230Z,20.93
2018-08-18T19:37:38.470Z,28.17
2018-08-18T19:40:13.881Z,13.10
2018-08-18T19:42:56.145Z,12.80
2018-08-18T19:45:31.677Z,20.33
2018-08-18T19:48:07.316Z,17.80
2018-08-18T19:50:54.423Z,16.27
2018-08-18T19:53:32.646Z,28.80
2018-08-18T19:56:10.670Z,27.17
2018-08-18T19:58:46.197Z,23.33
2018-08-18T20:01:21.619Z,9.63
2018-08-18T20:04:12.363Z,12.00
2018-08-18T20:06:47.677Z,45.87
2018-08-18T20:09:23.125Z,13.73
2018-08-18T20:12:05.193Z,16.37
2018-08-18T20:14:41.084Z,16.60
2018-08-18T20:17:16.428Z,20.67
2018-08-18T20:19:51.984Z,12.67
2018-08-18T20:22:27.452Z,12.37
2018-08-18T20:25:03.687Z,30.20
2018-08-18T20:27:38.944Z,9.90
2018-08-18T20:30:15.288Z,16.00
2018-08-18T20:32:50.847Z,16.90
2018-08-18T20:35:27.517Z,14.57
2018-08-18T20:38:03.149Z,14.40
2018-08-18T20:40:38.813Z,13.17
2018-08-18T20:43:14.030Z,20.80
2018-08-18T20:45:50.217Z,16.57
2018-08-18T20:48:25.705Z,13.33
2018-08-18T20:51:01.227Z,10.90
2018-08-18T20:53:36.882Z,12.63
2018-08-18T20:56:12.481Z,13.97
2018-08-18T20:58:47.987Z,20.40
2018-08-18T21:01:23.438Z,9.83
2018-08-18T21:03:58.760Z,19.50
2018-08-18T21:06:34.294Z,14.67
2018-08-18T21:09:28.353Z,24.73
2018-08-18T21:12:03.923Z,19.00
2018-08-18T21:14:39.820Z,22.63
2018-08-18T21:17:15.458Z,26.90
2018-08-18T21:19:50.952Z,10.30
2018-08-18T21:22:31.476Z,13.47
2018-08-18T21:25:08.411Z,18.87
2018-08-18T21:27:44.067Z,10.77
2018-08-18T21:30:19.482Z,15.80
2018-08-18T21:32:55.065Z,25.77
2018-08-18T21:35:30.277Z,11.50
2018-08-18T21:38:05.992Z,16.63
2018-08-18T21:40:41.456Z,10.30
2018-08-18T21:43:31.485Z,26.37
2018-08-18T21:46:06.765Z,15.20
2018-08-18T21:48:51.781Z,13.17
2018-08-18T21:51:27.821Z,12.17
2018-08-18T21:54:03.910Z,12.67
2018-08-18T21:56:40.674Z,18.17
2018-08-18T21:59:16.257Z,14.03
2018-08-18T22:01:55.638Z,21.63
2018-08-18T22:04:31.253Z,20.53
2018-08-18T22:07:06.729Z,14.17
2018-08-18T22:09:42.914Z,11.97
2018-08-18T22:12:18.775Z,18.17
2018-08-18T22:14:54.327Z,14.73
2018-08-18T22:17:29.590Z,15.33
2018-08-18T22:20:05.332Z,15.20
2018-08-18T22:22:40.593Z,19.17
2018-08-18T22:25:16.528Z,20.33
2018-08-18T22:27:54.217Z,12.90
2018-08-18T22:30:29.612Z,30.57
2018-08-18T22:33:05.062Z,20.27
2018-08-18T22:35:44.477Z,19.30
2018-08-18T22:38:19.832Z,16.93
2018-08-18T22:40:55.337Z,16.00
2018-08-18T22:43:36.037Z,15.13
2018-08-18T22:46:11.365Z,17.13
2018-08-18T22:48:46.711Z,19.30
2018-08-18T22:51:22.241Z,13.60
2018-08-18T22:53:58.173Z,15.93
2018-08-18T22:56:35.549Z,15.90
2018-08-18T22:59:11.125Z,24.90
2018-08-18T23:01:49.669Z,20.80
2018-08-18T23:04:35.904Z,15.47
2018-08-18T23:07:11.516Z,20.17
2018-08-18T23:09:46.840Z,26.47
2018-08-18T23:12:22.388Z,24.60
2018-08-18T23:14:57.891Z,35.97
2018-08-18T23:17:33.584Z,36.57
2018-08-18T23:20:08.839Z,27.67
2018-08-18T23:22:56.569Z,21.87
2018-08-18T23:25:34.157Z,14.77
2018-08-18T23:28:09.606Z,20.47
2018-08-18T23:30:45.105Z,17.97
2018-08-18T23:33:20.593Z,24.83
2018-08-18T23:35:55.978Z,17.70
2018-08-18T23:38:31.492Z,18.33
2018-08-18T23:41:10.012Z,17.40
2018-08-18T23:43:45.563Z,17.23
2018-08-18T23:46:21.022Z,15.57
2018-08-18T23:48:56.656Z,25.13
2018-08-18T23:51:36.197Z,15.73
2018-08-18T23:54:24.026Z,18.33
2018-08-18T23:56:59.348Z,14.17
2018-08-18T23:59:34.888Z,20.68
